sensor_id;sensor_type;location;lat;lon;timestamp;temperature;humidity
5286;DHT22;2665;53.112;7.358;2022-10-17T00:00:49;11.80;13.90
5286;DHT22;2665;53.112;7.358;2022-10-17T00:03:15;11.80;95.50
5286;DHT22;2665;53.112;7.358;2022-10-17T00:05:43;11.80;99.90
5286;DHT22;2665;53.112;7.358;2022-10-17T00:08:10;11.80;99.90
5286;DHT22;2665;53.112;7.358;2022-10-17T00:10:37;11.90;99.90
5286;DHT22;2665;53.112;7.358;2022-10-17T00:13:03;11.90;99.90
5286;DHT22;2665;53.112;7.358;2022-10-17T00:15:29;12.00;1.00
5286;DHT22;2665;53.112;7.358;2022-10-17T00:17:55;12.00;1.00
5286;DHT22;2665;53.112;7.358;2022-10-17T00:20:21;12.10;1.00
5286;DHT22;2665;53.112;7.358;2022-10-17T00:22:46;12.10;1.00
5286;DHT22;2665;53.112;7.358;2022-10-17T00:25:12;12.20;1.00
5286;DHT22;2665;53.112;7.358;2022-10-17T00:27:39;12.10;99.90
5286;DHT22;2665;53.112;7.358;2022-10-17T00:30:07;12.20;99.90
5286;DHT22;2665;53.112;7.358;2022-10-17T00:32:34;12.20;99.90
5286;DHT22;2665;53.112;7.358;2022-10-17T00:35:00;12.10;99.90
5286;DHT22;2665;53.112;7.358;2022-10-17T00:37:26;12.10;99.90
5286;DHT22;2665;53.112;7.358;2022-10-17T00:39:52;12.10;99.90
5286;DHT22;2665;53.112;7.358;2022-10-17T00:42:18;12.10;99.90
5286;DHT22;2665;53.112;7.358;2022-10-17T00:47:15;12.00;99.90
5286;DHT22;2665;53.112;7.358;2022-10-17T00:49:41;12.00;99.90
5286;DHT22;2665;53.112;7.358;2022-10-17T00:52:17;12.00;1.00
5286;DHT22;2665;53.112;7.358;2022-10-17T00:54:49;12.00;1.00
5286;DHT22;2665;53.112;7.358;2022-10-17T00:57:16;12.00;1.00
5286;DHT22;2665;53.112;7.358;2022-10-17T00:59:46;12.10;1.00
5286;DHT22;2665;53.112;7.358;2022-10-17T01:02:15;12.10;1.00
5286;DHT22;2665;53.112;7.358;2022-10-17T01:04:44;12.10;60.80
5286;DHT22;2665;53.112;7.358;2022-10-17T01:07:10;12.20;99.90
5286;DHT22;2665;53.112;7.358;2022-10-17T01:09:36;12.20;99.90
5286;DHT22;2665;53.112;7.358;2022-10-17T01:25:48;12.40;99.90
5286;DHT22;2665;53.112;7.358;2022-10-17T01:31:15;12.40;1.00
5286;DHT22;2665;53.112;7.358;2022-10-17T01:33:45;12.50;1.00
5286;DHT22;2665;53.112;7.358;2022-10-17T01:39:00;12.50;94.90
5286;DHT22;2665;53.112;7.358;2022-10-17T01:44:14;12.60;1.00
5286;DHT22;2665;53.112;7.358;2022-10-17T01:47:06;12.60;1.00
5286;DHT22;2665;53.112;7.358;2022-10-17T01:49:34;12.60;1.00
5286;DHT22;2665;53.112;7.358;2022-10-17T01:52:14;12.60;1.00
5286;DHT22;2665;53.112;7.358;2022-10-17T01:54:45;12.70;1.00
5286;DHT22;2665;53.112;7.358;2022-10-17T01:57:23;12.70;1.00
5286;DHT22;2665;53.112;7.358;2022-10-17T01:59:52;12.70;1.00
5286;DHT22;2665;53.112;7.358;2022-10-17T02:02:20;12.70;1.00
5286;DHT22;2665;53.112;7.358;2022-10-17T02:04:48;12.70;1.00
5286;DHT22;2665;53.112;7.358;2022-10-17T02:07:14;12.70;1.00
5286;DHT22;2665;53.112;7.358;2022-10-17T02:09:40;12.70;99.90
5286;DHT22;2665;53.112;7.358;2022-10-17T02:12:27;12.60;99.90
5286;DHT22;2665;53.112;7.358;2022-10-17T02:19:59;12.50;99.90
5286;DHT22;2665;53.112;7.358;2022-10-17T02:23:02;12.50;99.90
5286;DHT22;2665;53.112;7.358;2022-10-17T02:25:47;12.50;99.90
5286;DHT22;2665;53.112;7.358;2022-10-17T02:31:18;12.40;1.00
5286;DHT22;2665;53.112;7.358;2022-10-17T02:33:58;12.40;1.00
5286;DHT22;2665;53.112;7.358;2022-10-17T02:36:29;12.40;1.00
5286;DHT22;2665;53.112;7.358;2022-10-17T02:38:57;12.40;90.50
5286;DHT22;2665;53.112;7.358;2022-10-17T02:41:23;12.40;99.90
5286;DHT22;2665;53.112;7.358;2022-10-17T02:43:51;12.40;99.90
5286;DHT22;2665;53.112;7.358;2022-10-17T02:46:19;12.30;99.90
5286;DHT22;2665;53.112;7.358;2022-10-17T02:48:52;12.30;99.90
5286;DHT22;2665;53.112;7.358;2022-10-17T02:56:28;12.30;99.90
5286;DHT22;2665;53.112;7.358;2022-10-17T02:58:57;12.30;99.90
5286;DHT22;2665;53.112;7.358;2022-10-17T03:01:24;12.40;1.00
5286;DHT22;2665;53.112;7.358;2022-10-17T03:03:50;12.40;1.00
5286;DHT22;2665;53.112;7.358;2022-10-17T03:06:16;12.40;1.00
5286;DHT22;2665;53.112;7.358;2022-10-17T03:08:42;12.40;92.60
5286;DHT22;2665;53.112;7.358;2022-10-17T03:11:07;12.40;99.90
5286;DHT22;2665;53.112;7.358;2022-10-17T03:13:33;12.40;99.90
5286;DHT22;2665;53.112;7.358;2022-10-17T03:15:59;12.40;99.90
5286;DHT22;2665;53.112;7.358;2022-10-17T03:18:24;12.30;99.90
5286;DHT22;2665;53.112;7.358;2022-10-17T03:20:50;12.40;1.00
5286;DHT22;2665;53.112;7.358;2022-10-17T03:23:15;12.40;1.00
5286;DHT22;2665;53.112;7.358;2022-10-17T03:25:41;12.40;99.90
5286;DHT22;2665;53.112;7.358;2022-10-17T03:28:07;12.40;99.90
5286;DHT22;2665;53.112;7.358;2022-10-17T03:30:33;12.30;99.90
5286;DHT22;2665;53.112;7.358;2022-10-17T03:32:59;12.30;99.90
5286;DHT22;2665;53.112;7.358;2022-10-17T03:35:26;12.30;99.90
5286;DHT22;2665;53.112;7.358;2022-10-17T03:37:51;12.30;60.30
5286;DHT22;2665;53.112;7.358;2022-10-17T03:40:17;12.30;99.90
5286;DHT22;2665;53.112;7.358;2022-10-17T03:42:43;12.30;99.90
5286;DHT22;2665;53.112;7.358;2022-10-17T03:45:08;12.30;1.00
5286;DHT22;2665;53.112;7.358;2022-10-17T03:47:34;12.20;67.30
5286;DHT22;2665;53.112;7.358;2022-10-17T03:50:00;12.20;99.90
5286;DHT22;2665;53.112;7.358;2022-10-17T03:52:25;12.20;99.90
5286;DHT22;2665;53.112;7.358;2022-10-17T03:54:51;12.20;99.90
5286;DHT22;2665;53.112;7.358;2022-10-17T03:57:17;12.20;99.90
5286;DHT22;2665;53.112;7.358;2022-10-17T03:59:43;12.20;99.90
5286;DHT22;2665;53.112;7.358;2022-10-17T04:02:09;12.20;1.00
5286;DHT22;2665;53.112;7.358;2022-10-17T04:04:34;12.30;1.00
5286;DHT22;2665;53.112;7.358;2022-10-17T04:07:00;12.20;1.00
5286;DHT22;2665;53.112;7.358;2022-10-17T04:09:26;12.20;1.00
5286;DHT22;2665;53.112;7.358;2022-10-17T04:11:51;12.30;1.00
5286;DHT22;2665;53.112;7.358;2022-10-17T04:14:17;12.30;1.00
5286;DHT22;2665;53.112;7.358;2022-10-17T04:16:42;12.30;1.00
5286;DHT22;2665;53.112;7.358;2022-10-17T04:19:12;12.30;1.00
5286;DHT22;2665;53.112;7.358;2022-10-17T04:21:38;12.30;16.00
5286;DHT22;2665;53.112;7.358;2022-10-17T04:24:04;12.30;99.90
5286;DHT22;2665;53.112;7.358;2022-10-17T04:26:30;12.40;99.90
5286;DHT22;2665;53.112;7.358;2022-10-17T04:28:55;12.40;99.90
5286;DHT22;2665;53.112;7.358;2022-10-17T04:31:21;12.40;99.90
5286;DHT22;2665;53.112;7.358;2022-10-17T04:33:48;12.40;99.90
5286;DHT22;2665;53.112;7.358;2022-10-17T04:36:17;12.40;99.90
5286;DHT22;2665;53.112;7.358;2022-10-17T04:38:44;12.40;99.90
5286;DHT22;2665;53.112;7.358;2022-10-17T04:41:12;12.40;99.90
5286;DHT22;2665;53.112;7.358;2022-10-17T04:43:38;12.40;99.90
5286;DHT22;2665;53.112;7.358;2022-10-17T04:46:10;12.40;99.90
5286;DHT22;2665;53.112;7.358;2022-10-17T04:48:36;12.50;99.90
5286;DHT22;2665;53.112;7.358;2022-10-17T04:51:08;12.50;99.90
5286;DHT22;2665;53.112;7.358;2022-10-17T04:53:35;12.50;99.90
5286;DHT22;2665;53.112;7.358;2022-10-17T04:56:06;12.60;99.90
5286;DHT22;2665;53.112;7.358;2022-10-17T04:58:32;12.60;99.90
5286;DHT22;2665;53.112;7.358;2022-10-17T05:00:57;12.60;99.90
5286;DHT22;2665;53.112;7.358;2022-10-17T05:03:23;12.70;99.90
5286;DHT22;2665;53.112;7.358;2022-10-17T05:05:48;12.70;99.90
5286;DHT22;2665;53.112;7.358;2022-10-17T05:08:14;12.80;99.90
5286;DHT22;2665;53.112;7.358;2022-10-17T05:10:41;12.80;99.90
5286;DHT22;2665;53.112;7.358;2022-10-17T05:13:08;12.80;99.90
5286;DHT22;2665;53.112;7.358;2022-10-17T05:15:34;12.80;99.90
5286;DHT22;2665;53.112;7.358;2022-10-17T05:18:00;12.90;1.00
5286;DHT22;2665;53.112;7.358;2022-10-17T05:20:26;12.90;1.00
5286;DHT22;2665;53.112;7.358;2022-10-17T05:22:52;12.90;1.00
5286;DHT22;2665;53.112;7.358;2022-10-17T05:25:18;13.00;1.00
5286;DHT22;2665;53.112;7.358;2022-10-17T05:27:43;13.00;1.00
5286;DHT22;2665;53.112;7.358;2022-10-17T05:30:09;13.00;1.00
5286;DHT22;2665;53.112;7.358;2022-10-17T05:32:35;13.00;1.00
5286;DHT22;2665;53.112;7.358;2022-10-17T05:35:01;13.00;1.00
5286;DHT22;2665;53.112;7.358;2022-10-17T05:37:29;13.10;1.00
5286;DHT22;2665;53.112;7.358;2022-10-17T05:39:55;13.10;1.00
5286;DHT22;2665;53.112;7.358;2022-10-17T05:42:20;13.20;1.00
5286;DHT22;2665;53.112;7.358;2022-10-17T05:44:46;13.20;1.00
5286;DHT22;2665;53.112;7.358;2022-10-17T05:47:12;13.30;1.00
5286;DHT22;2665;53.112;7.358;2022-10-17T05:49:37;13.30;1.00
5286;DHT22;2665;53.112;7.358;2022-10-17T05:52:03;13.30;1.00
5286;DHT22;2665;53.112;7.358;2022-10-17T05:54:28;13.40;1.00
5286;DHT22;2665;53.112;7.358;2022-10-17T05:56:55;13.40;1.00
5286;DHT22;2665;53.112;7.358;2022-10-17T05:59:21;13.50;1.00
5286;DHT22;2665;53.112;7.358;2022-10-17T06:01:46;13.50;1.00
5286;DHT22;2665;53.112;7.358;2022-10-17T06:04:12;13.50;1.00
5286;DHT22;2665;53.112;7.358;2022-10-17T06:06:39;13.60;1.00
5286;DHT22;2665;53.112;7.358;2022-10-17T06:09:05;13.60;1.00
5286;DHT22;2665;53.112;7.358;2022-10-17T06:11:32;13.60;1.00
5286;DHT22;2665;53.112;7.358;2022-10-17T06:13:58;13.70;1.00
5286;DHT22;2665;53.112;7.358;2022-10-17T06:16:24;13.70;1.00
5286;DHT22;2665;53.112;7.358;2022-10-17T06:18:50;13.70;1.00
5286;DHT22;2665;53.112;7.358;2022-10-17T06:21:20;13.80;1.00
5286;DHT22;2665;53.112;7.358;2022-10-17T06:23:46;13.80;1.00
5286;DHT22;2665;53.112;7.358;2022-10-17T06:26:12;13.80;1.00
5286;DHT22;2665;53.112;7.358;2022-10-17T06:28:38;13.80;1.00
5286;DHT22;2665;53.112;7.358;2022-10-17T06:31:05;13.80;1.00
5286;DHT22;2665;53.112;7.358;2022-10-17T06:33:31;13.90;1.00
5286;DHT22;2665;53.112;7.358;2022-10-17T06:35:57;13.90;1.00
5286;DHT22;2665;53.112;7.358;2022-10-17T06:38:22;13.90;1.00
5286;DHT22;2665;53.112;7.358;2022-10-17T06:40:48;14.00;1.00
5286;DHT22;2665;53.112;7.358;2022-10-17T06:43:14;14.00;1.00
5286;DHT22;2665;53.112;7.358;2022-10-17T06:45:39;14.10;1.00
5286;DHT22;2665;53.112;7.358;2022-10-17T06:48:06;14.20;1.00
5286;DHT22;2665;53.112;7.358;2022-10-17T06:50:32;14.20;1.00
5286;DHT22;2665;53.112;7.358;2022-10-17T06:52:57;14.30;1.00
5286;DHT22;2665;53.112;7.358;2022-10-17T06:55:23;14.40;1.00
5286;DHT22;2665;53.112;7.358;2022-10-17T06:57:49;14.40;1.00
5286;DHT22;2665;53.112;7.358;2022-10-17T07:00:16;14.50;1.00
5286;DHT22;2665;53.112;7.358;2022-10-17T07:02:42;14.60;1.00
5286;DHT22;2665;53.112;7.358;2022-10-17T07:05:08;14.70;1.00
5286;DHT22;2665;53.112;7.358;2022-10-17T07:07:34;14.80;1.00
5286;DHT22;2665;53.112;7.358;2022-10-17T07:09:59;14.90;1.00
5286;DHT22;2665;53.112;7.358;2022-10-17T07:12:25;15.00;1.00
5286;DHT22;2665;53.112;7.358;2022-10-17T07:14:51;15.20;1.00
5286;DHT22;2665;53.112;7.358;2022-10-17T07:17:17;15.20;99.90
5286;DHT22;2665;53.112;7.358;2022-10-17T07:19:45;15.30;99.90
5286;DHT22;2665;53.112;7.358;2022-10-17T07:22:11;15.40;99.90
5286;DHT22;2665;53.112;7.358;2022-10-17T07:24:37;15.50;91.50
5286;DHT22;2665;53.112;7.358;2022-10-17T07:27:03;15.50;1.00
5286;DHT22;2665;53.112;7.358;2022-10-17T07:29:29;15.60;1.00
5286;DHT22;2665;53.112;7.358;2022-10-17T07:31:54;15.60;99.90
5286;DHT22;2665;53.112;7.358;2022-10-17T07:34:20;15.70;1.00
5286;DHT22;2665;53.112;7.358;2022-10-17T07:36:45;15.70;1.00
5286;DHT22;2665;53.112;7.358;2022-10-17T07:39:11;15.80;99.90
5286;DHT22;2665;53.112;7.358;2022-10-17T07:41:37;15.80;1.00
5286;DHT22;2665;53.112;7.358;2022-10-17T07:44:03;15.80;99.90
5286;DHT22;2665;53.112;7.358;2022-10-17T07:46:29;15.90;71.00
5286;DHT22;2665;53.112;7.358;2022-10-17T07:48:54;16.00;7.10
5286;DHT22;2665;53.112;7.358;2022-10-17T07:51:20;16.00;1.00
5286;DHT22;2665;53.112;7.358;2022-10-17T07:53:46;16.10;99.90
5286;DHT22;2665;53.112;7.358;2022-10-17T07:56:12;16.10;99.90
5286;DHT22;2665;53.112;7.358;2022-10-17T07:58:38;16.20;99.90
5286;DHT22;2665;53.112;7.358;2022-10-17T08:01:06;16.20;1.00
5286;DHT22;2665;53.112;7.358;2022-10-17T08:03:32;16.20;1.00
5286;DHT22;2665;53.112;7.358;2022-10-17T08:05:59;16.30;99.90
5286;DHT22;2665;53.112;7.358;2022-10-17T08:08:25;16.30;99.90
5286;DHT22;2665;53.112;7.358;2022-10-17T08:10:52;16.40;1.00
5286;DHT22;2665;53.112;7.358;2022-10-17T08:13:20;16.50;20.60
5286;DHT22;2665;53.112;7.358;2022-10-17T08:15:46;16.60;1.00
5286;DHT22;2665;53.112;7.358;2022-10-17T08:18:13;16.60;1.00
5286;DHT22;2665;53.112;7.358;2022-10-17T08:20:39;16.70;1.00
5286;DHT22;2665;53.112;7.358;2022-10-17T08:23:05;16.70;99.90
5286;DHT22;2665;53.112;7.358;2022-10-17T08:25:31;16.80;1.00
5286;DHT22;2665;53.112;7.358;2022-10-17T08:27:58;16.80;99.90
5286;DHT22;2665;53.112;7.358;2022-10-17T08:30:23;16.90;99.90
5286;DHT22;2665;53.112;7.358;2022-10-17T08:32:49;16.90;99.90
5286;DHT22;2665;53.112;7.358;2022-10-17T08:35:15;17.00;1.00
5286;DHT22;2665;53.112;7.358;2022-10-17T08:37:40;17.10;1.00
5286;DHT22;2665;53.112;7.358;2022-10-17T08:40:08;17.30;99.90
5286;DHT22;2665;53.112;7.358;2022-10-17T08:43:14;17.30;1.00
5286;DHT22;2665;53.112;7.358;2022-10-17T08:45:50;17.40;99.90
5286;DHT22;2665;53.112;7.358;2022-10-17T08:48:20;17.50;99.90
5286;DHT22;2665;53.112;7.358;2022-10-17T08:51:41;17.50;99.90
5286;DHT22;2665;53.112;7.358;2022-10-17T08:56:24;17.60;1.00
5286;DHT22;2665;53.112;7.358;2022-10-17T08:58:50;17.60;1.00
5286;DHT22;2665;53.112;7.358;2022-10-17T09:01:44;17.60;1.00
5286;DHT22;2665;53.112;7.358;2022-10-17T09:15:57;17.60;1.00
5286;DHT22;2665;53.112;7.358;2022-10-17T09:18:37;17.60;21.00
5286;DHT22;2665;53.112;7.358;2022-10-17T09:21:18;17.60;1.00
5286;DHT22;2665;53.112;7.358;2022-10-17T09:23:52;17.70;1.00
5286;DHT22;2665;53.112;7.358;2022-10-17T09:26:19;17.70;99.90
5286;DHT22;2665;53.112;7.358;2022-10-17T09:28:54;17.70;1.00
5286;DHT22;2665;53.112;7.358;2022-10-17T09:31:42;17.70;1.00
5286;DHT22;2665;53.112;7.358;2022-10-17T09:34:10;17.70;99.90
5286;DHT22;2665;53.112;7.358;2022-10-17T09:36:39;17.70;99.90
5286;DHT22;2665;53.112;7.358;2022-10-17T09:39:18;17.70;1.00
5286;DHT22;2665;53.112;7.358;2022-10-17T09:42:02;17.70;99.90
5286;DHT22;2665;53.112;7.358;2022-10-17T09:44:32;17.70;99.90
5286;DHT22;2665;53.112;7.358;2022-10-17T09:47:28;17.70;1.00
5286;DHT22;2665;53.112;7.358;2022-10-17T09:49:55;17.70;10.50
5286;DHT22;2665;53.112;7.358;2022-10-17T09:52:35;17.70;1.00
5286;DHT22;2665;53.112;7.358;2022-10-17T09:55:04;17.70;99.90
5286;DHT22;2665;53.112;7.358;2022-10-17T09:57:54;17.70;99.90
5286;DHT22;2665;53.112;7.358;2022-10-17T10:00:26;17.80;99.90
5286;DHT22;2665;53.112;7.358;2022-10-17T10:03:22;17.90;99.90
5286;DHT22;2665;53.112;7.358;2022-10-17T10:08:33;18.10;1.00
5286;DHT22;2665;53.112;7.358;2022-10-17T10:11:08;18.10;1.00
5286;DHT22;2665;53.112;7.358;2022-10-17T10:13:34;18.20;1.00
5286;DHT22;2665;53.112;7.358;2022-10-17T10:16:29;18.20;1.00
5286;DHT22;2665;53.112;7.358;2022-10-17T10:18:55;18.20;1.00
5286;DHT22;2665;53.112;7.358;2022-10-17T10:21:26;18.20;1.00
5286;DHT22;2665;53.112;7.358;2022-10-17T10:24:12;18.20;1.00
5286;DHT22;2665;53.112;7.358;2022-10-17T10:26:46;18.20;1.00
5286;DHT22;2665;53.112;7.358;2022-10-17T10:29:37;18.20;1.00
5286;DHT22;2665;53.112;7.358;2022-10-17T10:32:22;18.20;1.00
5286;DHT22;2665;53.112;7.358;2022-10-17T10:37:28;18.20;1.00
5286;DHT22;2665;53.112;7.358;2022-10-17T10:40:00;18.20;1.00
5286;DHT22;2665;53.112;7.358;2022-10-17T10:42:31;18.20;1.00
5286;DHT22;2665;53.112;7.358;2022-10-17T10:47:53;18.00;1.00
5286;DHT22;2665;53.112;7.358;2022-10-17T10:55:59;17.70;99.90
5286;DHT22;2665;53.112;7.358;2022-10-17T11:01:03;17.50;1.00
5286;DHT22;2665;53.112;7.358;2022-10-17T11:03:38;17.40;1.00
5286;DHT22;2665;53.112;7.358;2022-10-17T11:06:12;17.30;1.00
5286;DHT22;2665;53.112;7.358;2022-10-17T11:08:44;17.30;99.90
5286;DHT22;2665;53.112;7.358;2022-10-17T11:11:16;17.20;99.90
5286;DHT22;2665;53.112;7.358;2022-10-17T11:14:00;17.20;1.00
5286;DHT22;2665;53.112;7.358;2022-10-17T11:16:34;17.10;99.90
5286;DHT22;2665;53.112;7.358;2022-10-17T11:24:47;16.90;1.00
5286;DHT22;2665;53.112;7.358;2022-10-17T11:27:14;16.80;1.00
5286;DHT22;2665;53.112;7.358;2022-10-17T11:29:41;16.80;1.00
5286;DHT22;2665;53.112;7.358;2022-10-17T11:32:16;16.80;7.40
5286;DHT22;2665;53.112;7.358;2022-10-17T11:34:46;16.80;23.50
5286;DHT22;2665;53.112;7.358;2022-10-17T11:37:20;16.80;1.00
5286;DHT22;2665;53.112;7.358;2022-10-17T11:39:50;16.80;1.00
5286;DHT22;2665;53.112;7.358;2022-10-17T11:42:21;16.80;1.00
5286;DHT22;2665;53.112;7.358;2022-10-17T11:44:54;16.80;1.00
5286;DHT22;2665;53.112;7.358;2022-10-17T11:47:43;16.80;1.00
5286;DHT22;2665;53.112;7.358;2022-10-17T11:50:36;16.80;1.00
5286;DHT22;2665;53.112;7.358;2022-10-17T11:53:18;16.80;99.90
5286;DHT22;2665;53.112;7.358;2022-10-17T11:55:45;16.80;99.90
5286;DHT22;2665;53.112;7.358;2022-10-17T12:03:49;16.90;99.90
5286;DHT22;2665;53.112;7.358;2022-10-17T12:14:36;16.80;99.90
5286;DHT22;2665;53.112;7.358;2022-10-17T12:17:04;16.80;1.00
5286;DHT22;2665;53.112;7.358;2022-10-17T12:19:32;16.80;1.00
5286;DHT22;2665;53.112;7.358;2022-10-17T12:22:23;16.80;1.00
5286;DHT22;2665;53.112;7.358;2022-10-17T12:24:56;16.80;1.00
5286;DHT22;2665;53.112;7.358;2022-10-17T12:35:49;16.80;99.90
5286;DHT22;2665;53.112;7.358;2022-10-17T12:38:21;16.90;99.90
5286;DHT22;2665;53.112;7.358;2022-10-17T12:40:54;16.80;99.90
5286;DHT22;2665;53.112;7.358;2022-10-17T12:43:47;16.80;99.90
5286;DHT22;2665;53.112;7.358;2022-10-17T12:46:49;16.80;99.90
5286;DHT22;2665;53.112;7.358;2022-10-17T12:52:21;16.80;99.90
5286;DHT22;2665;53.112;7.358;2022-10-17T13:03:04;16.70;99.90
5286;DHT22;2665;53.112;7.358;2022-10-17T13:05:35;16.70;1.00
5286;DHT22;2665;53.112;7.358;2022-10-17T13:08:04;16.70;1.00
5286;DHT22;2665;53.112;7.358;2022-10-17T13:10:34;16.70;1.00
5286;DHT22;2665;53.112;7.358;2022-10-17T13:15:36;16.70;1.00
5286;DHT22;2665;53.112;7.358;2022-10-17T13:18:02;16.70;1.00
5286;DHT22;2665;53.112;7.358;2022-10-17T13:20:29;16.70;1.00
5286;DHT22;2665;53.112;7.358;2022-10-17T13:22:56;16.70;1.00
5286;DHT22;2665;53.112;7.358;2022-10-17T13:25:23;16.70;1.00
5286;DHT22;2665;53.112;7.358;2022-10-17T13:27:49;16.70;1.00
5286;DHT22;2665;53.112;7.358;2022-10-17T13:30:30;16.80;1.00
5286;DHT22;2665;53.112;7.358;2022-10-17T13:32:56;16.80;1.00
5286;DHT22;2665;53.112;7.358;2022-10-17T13:35:35;16.80;1.00
5286;DHT22;2665;53.112;7.358;2022-10-17T13:38:04;16.80;1.00
5286;DHT22;2665;53.112;7.358;2022-10-17T13:40:41;16.80;1.00
5286;DHT22;2665;53.112;7.358;2022-10-17T13:43:19;16.80;1.00
5286;DHT22;2665;53.112;7.358;2022-10-17T13:45:49;16.80;1.00
5286;DHT22;2665;53.112;7.358;2022-10-17T13:48:22;16.80;1.00
5286;DHT22;2665;53.112;7.358;2022-10-17T13:50:51;16.80;1.00
5286;DHT22;2665;53.112;7.358;2022-10-17T13:53:37;16.80;1.00
5286;DHT22;2665;53.112;7.358;2022-10-17T13:56:18;16.80;1.00
5286;DHT22;2665;53.112;7.358;2022-10-17T13:58:53;16.80;1.00
5286;DHT22;2665;53.112;7.358;2022-10-17T14:01:23;16.80;1.00
5286;DHT22;2665;53.112;7.358;2022-10-17T14:03:49;16.80;1.00
5286;DHT22;2665;53.112;7.358;2022-10-17T14:09:04;16.90;1.00
5286;DHT22;2665;53.112;7.358;2022-10-17T14:11:39;16.90;99.90
5286;DHT22;2665;53.112;7.358;2022-10-17T14:14:13;16.90;99.90
5286;DHT22;2665;53.112;7.358;2022-10-17T14:16:41;16.90;99.90
5286;DHT22;2665;53.112;7.358;2022-10-17T14:19:31;16.90;99.90
5286;DHT22;2665;53.112;7.358;2022-10-17T14:24:46;16.90;99.90
5286;DHT22;2665;53.112;7.358;2022-10-17T14:27:26;16.90;99.90
5286;DHT22;2665;53.112;7.358;2022-10-17T14:29:54;16.90;99.90
5286;DHT22;2665;53.112;7.358;2022-10-17T14:32:20;16.90;99.90
5286;DHT22;2665;53.112;7.358;2022-10-17T14:34:51;16.90;99.90
5286;DHT22;2665;53.112;7.358;2022-10-17T14:37:42;16.80;99.90
5286;DHT22;2665;53.112;7.358;2022-10-17T14:40:20;16.80;99.90
5286;DHT22;2665;53.112;7.358;2022-10-17T14:42:48;16.60;1.00
5286;DHT22;2665;53.112;7.358;2022-10-17T14:47:48;16.30;29.50
5286;DHT22;2665;53.112;7.358;2022-10-17T14:52:40;16.10;99.90
5286;DHT22;2665;53.112;7.358;2022-10-17T14:55:26;16.00;99.90
5286;DHT22;2665;53.112;7.358;2022-10-17T14:57:52;15.90;99.90
5286;DHT22;2665;53.112;7.358;2022-10-17T15:00:19;15.90;99.90
5286;DHT22;2665;53.112;7.358;2022-10-17T15:02:46;15.80;99.90
5286;DHT22;2665;53.112;7.358;2022-10-17T15:05:13;15.80;99.90
5286;DHT22;2665;53.112;7.358;2022-10-17T15:07:39;15.80;99.90
5286;DHT22;2665;53.112;7.358;2022-10-17T15:10:05;15.80;99.90
5286;DHT22;2665;53.112;7.358;2022-10-17T15:12:31;15.80;1.00
5286;DHT22;2665;53.112;7.358;2022-10-17T15:14:57;15.70;1.00
5286;DHT22;2665;53.112;7.358;2022-10-17T15:19:50;15.70;1.00
5286;DHT22;2665;53.112;7.358;2022-10-17T15:22:16;15.70;1.00
5286;DHT22;2665;53.112;7.358;2022-10-17T15:24:43;15.70;1.00
5286;DHT22;2665;53.112;7.358;2022-10-17T15:27:28;15.70;1.00
5286;DHT22;2665;53.112;7.358;2022-10-17T15:29:56;15.60;1.00
5286;DHT22;2665;53.112;7.358;2022-10-17T15:32:22;15.60;1.00
5286;DHT22;2665;53.112;7.358;2022-10-17T15:34:47;15.40;99.90
5286;DHT22;2665;53.112;7.358;2022-10-17T15:37:22;15.30;99.90
5286;DHT22;2665;53.112;7.358;2022-10-17T15:39:49;15.20;99.90
5286;DHT22;2665;53.112;7.358;2022-10-17T15:42:26;15.10;99.90
5286;DHT22;2665;53.112;7.358;2022-10-17T15:44:52;15.00;99.90
5286;DHT22;2665;53.112;7.358;2022-10-17T15:47:23;15.00;1.00
5286;DHT22;2665;53.112;7.358;2022-10-17T15:49:49;14.90;1.00
5286;DHT22;2665;53.112;7.358;2022-10-17T15:52:15;15.00;1.00
5286;DHT22;2665;53.112;7.358;2022-10-17T15:54:40;15.00;1.00
5286;DHT22;2665;53.112;7.358;2022-10-17T15:57:13;15.10;1.00
5286;DHT22;2665;53.112;7.358;2022-10-17T15:59:40;15.10;1.00
5286;DHT22;2665;53.112;7.358;2022-10-17T16:02:12;15.10;1.00
5286;DHT22;2665;53.112;7.358;2022-10-17T16:04:38;15.10;1.00
5286;DHT22;2665;53.112;7.358;2022-10-17T16:07:04;15.10;1.00
5286;DHT22;2665;53.112;7.358;2022-10-17T16:09:29;15.20;1.00
5286;DHT22;2665;53.112;7.358;2022-10-17T16:11:55;15.20;1.00
5286;DHT22;2665;53.112;7.358;2022-10-17T16:14:20;15.20;1.00
5286;DHT22;2665;53.112;7.358;2022-10-17T16:16:46;15.20;1.00
5286;DHT22;2665;53.112;7.358;2022-10-17T16:19:12;15.20;1.00
5286;DHT22;2665;53.112;7.358;2022-10-17T16:21:39;15.20;1.00
5286;DHT22;2665;53.112;7.358;2022-10-17T16:24:05;15.20;1.00
5286;DHT22;2665;53.112;7.358;2022-10-17T16:26:31;15.10;1.00
5286;DHT22;2665;53.112;7.358;2022-10-17T16:28:56;15.10;1.00
5286;DHT22;2665;53.112;7.358;2022-10-17T16:31:31;15.10;1.00
5286;DHT22;2665;53.112;7.358;2022-10-17T16:33:58;15.10;1.00
5286;DHT22;2665;53.112;7.358;2022-10-17T16:36:24;15.00;1.00
5286;DHT22;2665;53.112;7.358;2022-10-17T16:38:51;15.00;1.00
5286;DHT22;2665;53.112;7.358;2022-10-17T16:41:27;15.00;1.00
5286;DHT22;2665;53.112;7.358;2022-10-17T16:43:54;14.90;1.00
5286;DHT22;2665;53.112;7.358;2022-10-17T16:46:21;15.00;1.00
5286;DHT22;2665;53.112;7.358;2022-10-17T16:48:47;14.90;1.00
5286;DHT22;2665;53.112;7.358;2022-10-17T16:51:14;14.80;1.00
5286;DHT22;2665;53.112;7.358;2022-10-17T16:53:40;14.80;99.90
5286;DHT22;2665;53.112;7.358;2022-10-17T16:56:14;14.70;99.90
5286;DHT22;2665;53.112;7.358;2022-10-17T16:58:41;14.70;1.00
5286;DHT22;2665;53.112;7.358;2022-10-17T17:01:09;14.70;1.00
5286;DHT22;2665;53.112;7.358;2022-10-17T17:03:36;14.70;1.00
5286;DHT22;2665;53.112;7.358;2022-10-17T17:06:04;14.60;1.00
5286;DHT22;2665;53.112;7.358;2022-10-17T17:08:30;14.70;1.00
5286;DHT22;2665;53.112;7.358;2022-10-17T17:10:56;14.60;1.00
5286;DHT22;2665;53.112;7.358;2022-10-17T17:13:23;14.60;1.00
5286;DHT22;2665;53.112;7.358;2022-10-17T17:15:49;14.50;1.00
5286;DHT22;2665;53.112;7.358;2022-10-17T17:18:21;14.50;1.00
5286;DHT22;2665;53.112;7.358;2022-10-17T17:20:47;14.50;1.00
5286;DHT22;2665;53.112;7.358;2022-10-17T17:23:13;14.50;1.00
5286;DHT22;2665;53.112;7.358;2022-10-17T17:25:39;14.50;1.00
5286;DHT22;2665;53.112;7.358;2022-10-17T17:28:05;14.50;1.00
5286;DHT22;2665;53.112;7.358;2022-10-17T17:30:34;14.50;1.00
5286;DHT22;2665;53.112;7.358;2022-10-17T17:33:00;14.50;1.00
5286;DHT22;2665;53.112;7.358;2022-10-17T17:35:27;14.50;1.00
5286;DHT22;2665;53.112;7.358;2022-10-17T17:37:53;14.40;1.00
5286;DHT22;2665;53.112;7.358;2022-10-17T17:40:18;14.50;1.00
5286;DHT22;2665;53.112;7.358;2022-10-17T17:42:44;14.50;1.00
5286;DHT22;2665;53.112;7.358;2022-10-17T17:45:10;14.50;1.00
5286;DHT22;2665;53.112;7.358;2022-10-17T17:47:36;14.50;1.00
5286;DHT22;2665;53.112;7.358;2022-10-17T17:50:02;14.50;1.00
5286;DHT22;2665;53.112;7.358;2022-10-17T17:52:28;14.50;1.00
5286;DHT22;2665;53.112;7.358;2022-10-17T17:54:54;14.50;1.00
5286;DHT22;2665;53.112;7.358;2022-10-17T17:57:20;14.50;1.00
5286;DHT22;2665;53.112;7.358;2022-10-17T17:59:45;14.60;1.00
5286;DHT22;2665;53.112;7.358;2022-10-17T18:02:13;14.60;1.00
5286;DHT22;2665;53.112;7.358;2022-10-17T18:04:38;14.60;1.00
5286;DHT22;2665;53.112;7.358;2022-10-17T18:07:04;14.60;1.00
5286;DHT22;2665;53.112;7.358;2022-10-17T18:09:29;14.60;1.00
5286;DHT22;2665;53.112;7.358;2022-10-17T18:11:55;14.60;1.00
5286;DHT22;2665;53.112;7.358;2022-10-17T18:14:20;14.60;1.00
5286;DHT22;2665;53.112;7.358;2022-10-17T18:16:48;14.70;1.00
5286;DHT22;2665;53.112;7.358;2022-10-17T18:19:14;14.60;1.00
5286;DHT22;2665;53.112;7.358;2022-10-17T18:21:39;14.60;1.00
5286;DHT22;2665;53.112;7.358;2022-10-17T18:24:05;14.60;1.00
5286;DHT22;2665;53.112;7.358;2022-10-17T18:26:31;14.60;1.00
5286;DHT22;2665;53.112;7.358;2022-10-17T18:28:57;14.60;1.00